createdAt,value
2018-12-04T00:00:42.608Z,0.00
2018-12-04T00:01:42.620Z,0.00
2018-12-04T00:02:42.599Z,0.00
2018-12-04T00:03:42.626Z,0.00
2018-12-04T00:04:42.591Z,0.00
2018-12-04T00:05:42.569Z,0.00
2018-12-04T00:06:42.562Z,0.00
2018-12-04T00:07:42.545Z,0.00
2018-12-04T00:08:42.565Z,0.00
2018-12-04T00:09:42.528Z,0.00
2018-12-04T00:10:42.504Z,0.00
2018-12-04T00:11:42.555Z,0.00
2018-12-04T00:12:42.484Z,0.00
2018-12-04T00:13:42.563Z,0.00
2018-12-04T00:14:42.485Z,0.00
2018-12-04T00:15:42.505Z,0.00
2018-12-04T00:16:42.447Z,0.00
2018-12-04T00:17:42.429Z,0.00
2018-12-04T00:18:42.438Z,0.00
2018-12-04T00:19:42.410Z,0.00
2018-12-04T00:20:42.461Z,0.00
2018-12-04T00:21:42.521Z,0.00
2018-12-04T00:22:42.387Z,0.00
2018-12-04T00:23:42.397Z,0.00
2018-12-04T00:24:42.369Z,0.00
2018-12-04T00:25:42.387Z,0.00
2018-12-04T00:26:42.350Z,0.00
2018-12-04T00:27:42.337Z,0.00
2018-12-04T00:28:42.361Z,0.00
2018-12-04T00:29:42.310Z,0.00
2018-12-04T00:30:42.295Z,0.00
2018-12-04T00:31:42.295Z,0.00
2018-12-04T00:32:42.279Z,0.00
2018-12-04T00:33:42.296Z,0.00
2018-12-04T00:34:42.254Z,0.00
2018-12-04T00:35:42.234Z,0.00
2018-12-04T00:36:42.248Z,0.00
2018-12-04T00:37:42.222Z,0.00
2018-12-04T00:38:42.238Z,0.00
2018-12-04T00:39:42.221Z,0.00
2018-12-04T00:40:42.178Z,0.00
2018-12-04T00:41:42.233Z,0.00
2018-12-04T00:42:42.204Z,0.00
2018-12-04T00:43:42.161Z,0.00
2018-12-04T00:44:42.198Z,0.00
2018-12-04T00:45:42.128Z,0.00
2018-12-04T00:46:42.136Z,0.00
2018-12-04T00:47:42.107Z,0.00
2018-12-04T00:48:42.097Z,0.00
2018-12-04T00:49:42.149Z,0.00
2018-12-04T00:50:42.086Z,0.00
2018-12-04T00:51:42.092Z,0.00
2018-12-04T00:52:42.091Z,0.00
2018-12-04T00:53:42.047Z,0.00
2018-12-04T00:54:42.051Z,0.00
2018-12-04T00:55:42.059Z,0.00
2018-12-04T00:56:42.055Z,0.00
2018-12-04T00:57:42.009Z,0.00
2018-12-04T00:58:42.015Z,0.00
2018-12-04T00:59:41.980Z,0.00
2018-12-04T01:00:41.985Z,0.00
2018-12-04T01:01:41.973Z,0.00
2018-12-04T01:02:41.957Z,0.00
2018-12-04T01:03:41.935Z,0.00
2018-12-04T01:04:42.031Z,0.00
2018-12-04T01:05:41.949Z,0.00
2018-12-04T01:06:41.913Z,0.00
2018-12-04T01:07:41.907Z,0.00
2018-12-04T01:08:41.883Z,0.00
2018-12-04T01:09:41.935Z,0.00
2018-12-04T01:10:41.871Z,0.00
2018-12-04T01:11:41.877Z,0.00
2018-12-04T01:12:41.861Z,0.00
2018-12-04T01:13:41.856Z,0.00
2018-12-04T01:14:41.850Z,0.00
2018-12-04T01:15:41.884Z,0.00
2018-12-04T01:16:41.795Z,0.00
2018-12-04T01:17:41.786Z,0.00
2018-12-04T01:18:41.806Z,0.00
2018-12-04T01:19:41.785Z,0.00
2018-12-04T01:20:41.796Z,0.00
2018-12-04T01:21:41.778Z,0.00
2018-12-04T01:22:41.733Z,0.00
2018-12-04T01:23:41.723Z,0.00
2018-12-04T01:24:41.720Z,0.00
2018-12-04T01:25:41.745Z,0.00
2018-12-04T01:26:41.702Z,0.00
2018-12-04T01:27:41.710Z,0.00
2018-12-04T01:28:41.680Z,0.00
2018-12-04T01:29:41.672Z,0.00
2018-12-04T01:30:41.693Z,0.00
2018-12-04T01:31:41.662Z,0.00
2018-12-04T01:32:41.628Z,0.00
2018-12-04T01:33:41.646Z,0.00
2018-12-04T01:34:41.624Z,0.00
2018-12-04T01:35:41.679Z,0.00
2018-12-04T01:36:41.597Z,0.00
2018-12-04T01:37:41.582Z,0.00
2018-12-04T01:38:41.577Z,0.00
2018-12-04T01:39:41.566Z,0.00
2018-12-04T01:40:41.580Z,0.00
2018-12-04T01:41:41.544Z,0.00
2018-12-04T01:42:41.518Z,0.00
2018-12-04T01:43:41.521Z,0.00
2018-12-04T01:44:41.511Z,0.00
2018-12-04T01:45:41.524Z,0.00
2018-12-04T01:46:41.497Z,0.00
2018-12-04T01:47:41.487Z,0.00
2018-12-04T01:48:41.457Z,0.00
2018-12-04T01:49:41.496Z,0.00
2018-12-04T01:50:41.427Z,0.00
2018-12-04T01:51:41.429Z,0.00
2018-12-04T01:52:41.406Z,0.00
2018-12-04T01:53:41.409Z,0.00
2018-12-04T01:54:41.437Z,0.00
2018-12-04T01:55:41.399Z,0.00
2018-12-04T01:56:41.367Z,0.00
2018-12-04T01:57:41.386Z,0.00
2018-12-04T01:58:41.353Z,0.00
2018-12-04T01:59:41.379Z,0.00
2018-12-04T02:00:41.358Z,0.00
2018-12-04T02:01:41.318Z,0.00
2018-12-04T02:02:41.301Z,0.00
2018-12-04T02:03:41.302Z,0.00
2018-12-04T02:04:41.329Z,0.00
2018-12-04T02:05:41.331Z,0.00
2018-12-04T02:06:41.265Z,0.00
2018-12-04T02:07:41.259Z,0.00
2018-12-04T02:08:41.248Z,0.00
2018-12-04T02:09:41.289Z,0.00
2018-12-04T02:10:41.230Z,0.00
2018-12-04T02:11:41.230Z,0.00
2018-12-04T02:12:41.250Z,0.00
2018-12-04T02:13:41.192Z,0.00
2018-12-04T02:14:41.194Z,0.00
2018-12-04T02:15:41.174Z,0.00
2018-12-04T02:16:41.155Z,0.00
2018-12-04T02:17:41.235Z,0.00
2018-12-04T02:18:41.132Z,0.00
2018-12-04T02:19:41.120Z,0.00
2018-12-04T02:20:41.122Z,0.00
2018-12-04T02:21:41.096Z,0.00
2018-12-04T02:22:41.135Z,0.00
2018-12-04T02:23:41.088Z,0.00
2018-12-04T02:24:41.078Z,0.00
2018-12-04T02:25:41.054Z,0.00
2018-12-04T02:26:41.052Z,0.00
2018-12-04T02:27:41.033Z,0.00
2018-12-04T02:28:41.051Z,0.00
2018-12-04T02:29:41.053Z,0.00
2018-12-04T02:30:41.011Z,0.00
2018-12-04T02:31:40.989Z,0.00
2018-12-04T02:32:40.994Z,0.00
2018-12-04T02:33:41.011Z,0.00
2018-12-04T02:34:41.050Z,0.00
2018-12-04T02:35:40.967Z,0.00
2018-12-04T02:36:40.941Z,0.00
2018-12-04T02:37:40.948Z,0.00
2018-12-04T02:38:41.694Z,0.00
2018-12-04T02:39:40.937Z,0.00
2018-12-04T02:40:40.912Z,0.00
2018-12-04T02:41:40.894Z,0.00
2018-12-04T02:42:40.877Z,0.00
2018-12-04T02:43:40.876Z,0.00
2018-12-04T02:44:40.901Z,0.00
2018-12-04T02:45:40.870Z,0.00
2018-12-04T02:46:40.831Z,0.00
2018-12-04T02:47:40.822Z,0.00
2018-12-04T02:48:40.811Z,0.00
2018-12-04T02:49:40.846Z,0.00
2018-12-04T02:50:40.795Z,0.00
2018-12-04T02:51:40.784Z,0.00
2018-12-04T02:52:40.785Z,0.00
2018-12-04T02:53:40.772Z,0.00
2018-12-04T02:54:40.809Z,0.00
2018-12-04T02:55:40.741Z,0.00
2018-12-04T02:56:40.728Z,0.00
2018-12-04T02:57:40.739Z,0.00
2018-12-04T02:58:40.714Z,0.00
2018-12-04T02:59:40.742Z,0.00
2018-12-04T03:00:40.716Z,0.00
2018-12-04T03:01:40.695Z,0.00
2018-12-04T03:02:40.702Z,0.00
2018-12-04T03:03:40.672Z,0.00
2018-12-04T03:04:40.645Z,0.00
2018-12-04T03:05:40.647Z,0.00
2018-12-04T03:06:40.626Z,0.00
2018-12-04T03:07:40.633Z,0.00
2018-12-04T03:08:40.653Z,0.00
2018-12-04T03:09:40.595Z,0.00
2018-12-04T03:10:40.596Z,0.00
2018-12-04T03:11:40.599Z,0.00
2018-12-04T03:12:40.565Z,0.00
2018-12-04T03:13:40.596Z,0.00
2018-12-04T03:14:40.584Z,0.00
2018-12-04T03:15:40.555Z,0.00
2018-12-04T03:16:40.564Z,0.00
2018-12-04T03:17:40.512Z,0.00
2018-12-04T03:18:40.503Z,0.00
2018-12-04T03:19:40.481Z,0.00
2018-12-04T03:20:40.474Z,0.00
2018-12-04T03:21:40.498Z,0.00
2018-12-04T03:22:40.486Z,0.00
2018-12-04T03:23:40.448Z,0.00
2018-12-04T03:24:40.437Z,0.00
2018-12-04T03:25:40.424Z,0.00
2018-12-04T03:26:40.462Z,0.00
2018-12-04T03:27:40.408Z,0.00
2018-12-04T03:28:40.399Z,0.00
2018-12-04T03:29:40.381Z,0.00
2018-12-04T03:30:40.360Z,0.00
2018-12-04T03:31:40.397Z,0.00
2018-12-04T03:32:40.365Z,0.00
2018-12-04T03:33:40.349Z,0.00
2018-12-04T03:34:40.362Z,0.00
2018-12-04T03:35:40.322Z,0.00
2018-12-04T03:36:40.299Z,0.00
2018-12-04T03:37:40.345Z,0.00
2018-12-04T03:38:40.331Z,0.00
2018-12-04T03:39:40.319Z,0.00
2018-12-04T03:40:40.321Z,0.00
2018-12-04T03:41:40.257Z,0.00
2018-12-04T03:42:40.242Z,0.00
2018-12-04T03:43:40.273Z,0.00
2018-12-04T03:44:40.214Z,0.00
2018-12-04T03:45:40.267Z,0.00
2018-12-04T03:46:40.193Z,0.00
2018-12-04T03:47:40.189Z,0.00
2018-12-04T03:48:40.172Z,0.00
2018-12-04T03:49:40.191Z,0.00
2018-12-04T03:50:40.187Z,0.00
2018-12-04T03:51:40.141Z,0.00
2018-12-04T03:52:40.127Z,0.00
2018-12-04T03:53:40.118Z,0.00
2018-12-04T03:54:40.125Z,0.00
2018-12-04T03:55:40.151Z,0.00
2018-12-04T03:56:40.089Z,0.00
2018-12-04T03:57:40.098Z,0.00
2018-12-04T03:58:40.090Z,0.00
2018-12-04T03:59:40.060Z,0.00
2018-12-04T04:00:40.063Z,0.00
2018-12-04T04:01:40.047Z,0.00
2018-12-04T04:02:40.062Z,0.00
2018-12-04T04:03:40.048Z,0.00
2018-12-04T04:04:40.003Z,0.00
2018-12-04T04:05:39.999Z,0.00
2018-12-04T04:06:39.980Z,0.00
2018-12-04T04:07:40.004Z,0.00
2018-12-04T04:08:39.991Z,0.00
2018-12-04T04:09:40.016Z,0.00
2018-12-04T04:10:39.950Z,0.00
2018-12-04T04:11:39.937Z,0.00
2018-12-04T04:12:39.921Z,0.00
2018-12-04T04:13:39.920Z,0.00
2018-12-04T04:14:39.925Z,0.00
2018-12-04T04:15:39.925Z,0.00
2018-12-04T04:16:39.871Z,0.00
2018-12-04T04:17:39.885Z,0.00
2018-12-04T04:18:39.861Z,0.00
2018-12-04T04:19:39.883Z,0.00
2018-12-04T04:20:39.854Z,0.00
2018-12-04T04:21:39.825Z,0.00
2018-12-04T04:22:39.807Z,0.00
2018-12-04T04:23:39.843Z,0.00
2018-12-04T04:24:39.827Z,0.00
2018-12-04T04:25:39.802Z,0.00
2018-12-04T04:26:39.780Z,0.00
2018-12-04T04:27:39.767Z,0.00
2018-12-04T04:28:39.820Z,0.00
2018-12-04T04:29:39.742Z,0.00
2018-12-04T04:30:39.731Z,0.00
2018-12-04T04:31:39.721Z,0.00
2018-12-04T04:32:39.726Z,0.00
2018-12-04T04:33:39.741Z,0.00
2018-12-04T04:34:39.690Z,0.00
2018-12-04T04:35:39.664Z,0.00
2018-12-04T04:36:39.679Z,0.00
2018-12-04T04:37:39.653Z,0.00
2018-12-04T04:38:39.679Z,0.00
2018-12-04T04:39:39.636Z,0.00
2018-12-04T04:40:39.612Z,0.00
2018-12-04T04:41:39.602Z,0.00
2018-12-04T04:42:39.654Z,0.00
2018-12-04T04:43:39.600Z,0.00
2018-12-04T04:44:39.601Z,0.00
2018-12-04T04:45:39.560Z,0.00
2018-12-04T04:46:39.546Z,0.00
2018-12-04T04:47:39.576Z,0.00
2018-12-04T04:48:39.545Z,0.00
2018-12-04T04:49:39.535Z,0.00
2018-12-04T04:50:39.523Z,0.00
2018-12-04T04:51:39.506Z,0.00
2018-12-04T04:52:39.537Z,0.00
2018-12-04T04:53:39.500Z,0.00
2018-12-04T04:54:39.503Z,0.00
2018-12-04T04:55:39.479Z,0.00
2018-12-04T04:56:39.499Z,0.00
2018-12-04T04:57:39.431Z,0.00
2018-12-04T04:58:39.425Z,0.00
2018-12-04T04:59:39.410Z,0.00
2018-12-04T05:00:39.441Z,0.00
2018-12-04T05:01:39.438Z,0.00
2018-12-04T05:02:39.394Z,0.00
2018-12-04T05:03:39.365Z,0.00
2018-12-04T05:04:39.364Z,0.00
2018-12-04T05:05:39.351Z,0.00
2018-12-04T05:06:39.393Z,0.00
2018-12-04T05:07:39.331Z,0.00
2018-12-04T05:08:39.332Z,0.00
2018-12-04T05:09:39.349Z,0.00
2018-12-04T05:10:39.295Z,0.00
2018-12-04T05:11:39.354Z,0.00
2018-12-04T05:12:39.333Z,0.00
2018-12-04T05:13:39.291Z,0.00
2018-12-04T05:14:39.285Z,0.00
2018-12-04T05:15:39.256Z,0.00
2018-12-04T05:16:39.275Z,0.00
2018-12-04T05:17:39.239Z,0.00
2018-12-04T05:18:39.229Z,0.00
2018-12-04T05:19:39.264Z,0.00
2018-12-04T05:20:39.225Z,0.00
2018-12-04T05:21:39.201Z,0.00
2018-12-04T05:22:39.166Z,0.00
2018-12-04T05:23:39.178Z,0.00
2018-12-04T05:24:39.191Z,0.00
2018-12-04T05:25:39.129Z,0.00
2018-12-04T05:26:39.140Z,0.00
2018-12-04T05:27:39.112Z,0.00
2018-12-04T05:28:39.147Z,0.00
2018-12-04T05:29:39.140Z,0.00
2018-12-04T05:30:39.081Z,0.00
2018-12-04T05:31:39.065Z,0.00
2018-12-04T05:32:39.081Z,0.00
2018-12-04T05:33:39.133Z,0.00
2018-12-04T05:34:39.127Z,0.00
2018-12-04T05:35:39.063Z,0.00
2018-12-04T05:36:39.071Z,0.00
2018-12-04T05:37:39.040Z,0.00
2018-12-04T05:38:39.007Z,0.00
2018-12-04T05:39:38.980Z,0.00
2018-12-04T05:40:39.030Z,0.00
2018-12-04T05:41:38.961Z,0.00
2018-12-04T05:42:38.949Z,0.00
2018-12-04T05:43:38.968Z,0.00
2018-12-04T05:44:38.959Z,0.00
2018-12-04T05:45:38.950Z,0.00
2018-12-04T05:46:38.906Z,0.00
2018-12-04T05:47:38.908Z,0.00
2018-12-04T05:48:38.892Z,0.00
2018-12-04T05:49:38.901Z,0.00
2018-12-04T05:50:38.869Z,0.00
2018-12-04T05:51:38.853Z,0.00
2018-12-04T05:52:38.843Z,0.00
2018-12-04T05:53:38.911Z,0.00
2018-12-04T05:54:38.825Z,0.00
2018-12-04T05:55:38.811Z,0.00
2018-12-04T05:56:38.801Z,0.00
2018-12-04T05:57:38.793Z,0.00
2018-12-04T05:58:38.816Z,0.00
2018-12-04T05:59:38.790Z,0.00
2018-12-04T06:00:38.761Z,0.00
2018-12-04T06:01:38.748Z,0.00
2018-12-04T06:02:38.731Z,0.00
2018-12-04T06:03:38.763Z,0.00
2018-12-04T06:04:38.723Z,0.00
2018-12-04T06:05:38.722Z,0.00
2018-12-04T06:06:38.697Z,0.00
2018-12-04T06:07:38.727Z,0.00
2018-12-04T06:08:38.673Z,0.00
2018-12-04T06:09:38.661Z,0.00
2018-12-04T06:10:38.657Z,0.00
2018-12-04T06:11:38.676Z,0.00
2018-12-04T06:12:38.640Z,0.00
2018-12-04T06:13:38.615Z,0.00
2018-12-04T06:14:38.604Z,0.00
2018-12-04T06:15:38.594Z,0.00
2018-12-04T06:16:38.616Z,0.00
2018-12-04T06:17:38.606Z,4.00
2018-12-04T06:18:38.561Z,4.00
2018-12-04T06:19:38.611Z,4.00
2018-12-04T06:20:38.541Z,4.00
2018-12-04T06:21:38.528Z,4.00
2018-12-04T06:22:38.521Z,4.00
2018-12-04T06:23:38.509Z,4.00
2018-12-04T06:24:38.534Z,4.00
2018-12-04T06:25:38.517Z,4.00
2018-12-04T06:26:38.479Z,8.00
2018-12-04T06:27:38.468Z,8.00
2018-12-04T06:28:38.455Z,8.00
2018-12-04T06:29:38.481Z,12.00
2018-12-04T06:30:38.446Z,12.00
2018-12-04T06:31:38.424Z,20.00
2018-12-04T06:32:38.431Z,20.00
2018-12-04T06:33:38.449Z,24.00
2018-12-04T06:34:38.449Z,32.00
2018-12-04T06:35:38.397Z,40.00
2018-12-04T06:36:38.381Z,48.00
2018-12-04T06:37:38.358Z,56.00
2018-12-04T06:38:38.360Z,68.00
2018-12-04T06:39:38.387Z,80.00
2018-12-04T06:40:38.335Z,96.00
2018-12-04T06:41:38.349Z,112.00
2018-12-04T06:42:38.308Z,124.00
2018-12-04T06:43:38.291Z,136.00
2018-12-04T06:44:38.338Z,144.00
2018-12-04T06:45:38.319Z,156.00
2018-12-04T06:46:38.283Z,176.00
2018-12-04T06:47:38.263Z,212.00
2018-12-04T06:48:38.242Z,248.00
2018-12-04T06:49:38.234Z,296.00
2018-12-04T06:50:38.255Z,340.00
2018-12-04T06:51:38.243Z,384.00
2018-12-04T06:52:38.206Z,432.00
2018-12-04T06:53:38.192Z,492.00
2018-12-04T06:54:38.175Z,544.00
2018-12-04T06:55:38.204Z,592.00
2018-12-04T06:56:38.161Z,620.00
2018-12-04T06:57:38.160Z,652.00
2018-12-04T06:58:38.139Z,664.00
2018-12-04T06:59:38.124Z,656.00
2018-12-04T07:00:38.146Z,632.00
2018-12-04T07:01:38.141Z,608.00
2018-12-04T07:02:38.094Z,576.00
2018-12-04T07:03:38.106Z,560.00
2018-12-04T07:04:38.072Z,556.00
2018-12-04T07:05:38.072Z,556.00
2018-12-04T07:06:38.113Z,560.00
2018-12-04T07:07:38.042Z,584.00
2018-12-04T07:08:38.035Z,600.00
2018-12-04T07:09:38.035Z,612.00
2018-12-04T07:10:38.011Z,628.00
2018-12-04T07:11:38.034Z,636.00
2018-12-04T07:12:37.999Z,608.00
2018-12-04T07:13:37.977Z,536.00
2018-12-04T07:14:37.964Z,472.00
2018-12-04T07:15:37.973Z,452.00
2018-12-04T07:16:37.973Z,464.00
2018-12-04T07:17:37.970Z,492.00
2018-12-04T07:18:37.924Z,532.00
2018-12-04T07:19:37.912Z,588.00
2018-12-04T07:20:37.903Z,644.00
2018-12-04T07:21:37.910Z,656.00
2018-12-04T07:22:37.922Z,640.00
2018-12-04T07:23:37.878Z,608.00
2018-12-04T07:24:37.861Z,568.00
2018-12-04T07:25:38.012Z,540.00
2018-12-04T07:26:37.861Z,532.00
2018-12-04T07:27:37.878Z,540.00
2018-12-04T07:28:37.822Z,528.00
2018-12-04T07:29:37.810Z,520.00
2018-12-04T07:30:37.794Z,564.00
2018-12-04T07:31:37.789Z,628.00
2018-12-04T07:32:38.923Z,724.00
2018-12-04T07:33:37.790Z,824.00
2018-12-04T07:34:37.795Z,804.00
2018-12-04T07:35:37.744Z,720.00
2018-12-04T07:36:37.735Z,688.00
2018-12-04T07:37:37.721Z,660.00
2018-12-04T07:38:37.714Z,572.00
2018-12-04T07:39:37.762Z,500.00
2018-12-04T07:40:37.687Z,464.00
2018-12-04T07:41:37.703Z,468.00
2018-12-04T07:42:37.667Z,504.00
2018-12-04T07:43:37.653Z,556.00
2018-12-04T07:44:37.682Z,608.00
2018-12-04T07:45:37.706Z,664.00
2018-12-04T07:46:37.623Z,776.00
2018-12-04T07:47:37.620Z,976.00
2018-12-04T07:48:37.606Z,1260.00
2018-12-04T07:49:37.625Z,1476.00
2018-12-04T07:50:37.642Z,1516.00
2018-12-04T07:51:37.592Z,1392.00
2018-12-04T07:52:37.564Z,1256.00
2018-12-04T07:53:37.548Z,1148.00
2018-12-04T07:54:37.574Z,1104.00
2018-12-04T07:55:37.535Z,1080.00
2018-12-04T07:56:37.516Z,1028.00
2018-12-04T07:57:37.560Z,964.00
2018-12-04T07:58:37.493Z,872.00
2018-12-04T07:59:37.483Z,828.00
2018-12-04T08:00:37.473Z,908.00
2018-12-04T08:01:37.469Z,1208.00
2018-12-04T08:02:37.504Z,1596.00
2018-12-04T08:03:37.496Z,1984.00
2018-12-04T08:04:37.430Z,2228.00
2018-12-04T08:05:37.423Z,2148.00
2018-12-04T08:06:37.411Z,1952.00
2018-12-04T08:07:37.435Z,2008.00
2018-12-04T08:08:37.406Z,2036.00
2018-12-04T08:09:37.377Z,1928.00
2018-12-04T08:10:37.365Z,1744.00
2018-12-04T08:11:37.369Z,1480.00
2018-12-04T08:12:37.383Z,1356.00
2018-12-04T08:13:37.350Z,1428.00
2018-12-04T08:14:37.327Z,1536.00
2018-12-04T08:15:37.315Z,1452.00
2018-12-04T08:16:37.303Z,1256.00
2018-12-04T08:17:37.353Z,1028.00
2018-12-04T08:18:37.290Z,904.00
2018-12-04T08:19:37.269Z,864.00
2018-12-04T08:20:37.260Z,872.00
2018-12-04T08:21:37.245Z,908.00
2018-12-04T08:22:37.273Z,912.00
2018-12-04T08:23:37.247Z,964.00
2018-12-04T08:24:37.216Z,956.00
2018-12-04T08:25:37.206Z,924.00
2018-12-04T08:26:37.202Z,888.00
2018-12-04T08:27:37.220Z,872.00
2018-12-04T08:28:37.178Z,780.00
2018-12-04T08:29:37.178Z,712.00
2018-12-04T08:30:37.158Z,660.00
2018-12-04T08:31:37.145Z,632.00
2018-12-04T08:32:37.171Z,596.00
2018-12-04T08:33:37.125Z,580.00
2018-12-04T08:34:37.108Z,644.00
2018-12-04T08:35:37.111Z,692.00
2018-12-04T08:36:37.088Z,768.00
2018-12-04T08:37:37.114Z,820.00
2018-12-04T08:38:37.072Z,856.00
2018-12-04T08:39:37.060Z,972.00
2018-12-04T08:40:37.046Z,936.00
2018-12-04T08:41:37.049Z,1076.00
2018-12-04T08:42:37.026Z,1160.00
2018-12-04T08:43:37.021Z,1192.00
2018-12-04T08:44:37.013Z,1268.00
2018-12-04T08:45:36.994Z,1384.00
2018-12-04T08:46:36.983Z,1540.00
2018-12-04T08:47:36.985Z,1792.00
2018-12-04T08:48:37.006Z,1912.00
2018-12-04T08:49:36.959Z,1924.00
2018-12-04T08:50:36.936Z,1864.00
2018-12-04T08:51:36.928Z,1840.00
2018-12-04T08:52:36.923Z,1840.00
2018-12-04T08:53:36.961Z,1796.00
2018-12-04T08:54:36.897Z,1884.00
2018-12-04T08:55:36.897Z,2400.00
2018-12-04T08:56:36.877Z,3072.00
2018-12-04T08:57:36.875Z,3144.00
2018-12-04T08:58:36.894Z,2912.00
2018-12-04T08:59:36.862Z,2536.00
2018-12-04T09:00:36.831Z,2260.00
2018-12-04T09:01:36.829Z,2108.00
2018-12-04T09:02:36.820Z,2092.00
2018-12-04T09:03:36.836Z,2200.00
2018-12-04T09:04:36.834Z,2408.00
2018-12-04T09:05:36.793Z,2628.00
2018-12-04T09:06:36.767Z,2768.00
2018-12-04T09:07:36.759Z,2716.00
2018-12-04T09:08:36.751Z,2528.00
2018-12-04T09:09:36.781Z,2388.00
2018-12-04T09:10:36.731Z,2416.00
2018-12-04T09:11:36.735Z,2544.00
2018-12-04T09:12:36.702Z,2708.00
2018-12-04T09:13:36.694Z,2808.00
2018-12-04T09:14:38.253Z,2860.00
2018-12-04T09:15:36.685Z,2920.00
2018-12-04T09:16:36.713Z,3144.00
2018-12-04T09:17:36.658Z,3508.00
2018-12-04T09:18:36.667Z,3932.00
2018-12-04T09:19:36.651Z,4356.00
2018-12-04T09:20:36.644Z,4584.00
2018-12-04T09:21:36.681Z,4792.00
2018-12-04T09:22:36.599Z,5016.00
2018-12-04T09:23:36.625Z,5264.00
2018-12-04T09:24:36.595Z,5428.00
2018-12-04T09:25:36.578Z,5572.00
2018-12-04T09:26:36.619Z,5696.00
2018-12-04T09:27:36.570Z,5840.00
2018-12-04T09:28:36.539Z,5988.00
2018-12-04T09:29:36.530Z,6168.00
2018-12-04T09:30:36.529Z,6620.00
2018-12-04T09:31:36.535Z,7496.00
2018-12-04T09:32:36.514Z,8536.00
2018-12-04T09:33:36.510Z,9680.00
2018-12-04T09:34:36.469Z,10764.00
2018-12-04T09:35:36.455Z,11088.00
2018-12-04T09:36:36.485Z,10940.00
2018-12-04T09:37:36.483Z,10696.00
2018-12-04T09:38:36.430Z,10368.00
2018-12-04T09:39:36.416Z,10324.00
2018-12-04T09:40:36.409Z,10704.00
2018-12-04T09:41:36.404Z,11488.00
2018-12-04T09:42:36.417Z,12952.00
2018-12-04T09:43:36.400Z,14740.00
2018-12-04T09:44:36.441Z,16332.00
2018-12-04T09:45:36.363Z,15188.00
2018-12-04T09:46:36.394Z,12224.00
2018-12-04T09:47:36.343Z,11804.00
2018-12-04T09:48:36.345Z,12700.00
2018-12-04T09:49:36.408Z,14016.00
2018-12-04T09:50:36.317Z,15524.00
2018-12-04T09:51:36.316Z,17472.00
2018-12-04T09:52:36.286Z,18880.00
2018-12-04T09:53:36.279Z,16776.00
2018-12-04T09:54:36.296Z,18496.00
2018-12-04T09:55:36.271Z,22336.00
2018-12-04T09:56:36.238Z,24064.00
2018-12-04T09:57:36.231Z,24352.00
2018-12-04T09:58:36.214Z,21216.00
2018-12-04T09:59:39.503Z,19328.00
2018-12-04T10:00:36.212Z,16260.00
2018-12-04T10:01:36.182Z,13780.00
2018-12-04T10:02:36.168Z,11876.00
2018-12-04T10:03:36.172Z,10352.00
2018-12-04T10:04:36.160Z,9580.00
2018-12-04T10:05:36.190Z,9200.00
2018-12-04T10:06:36.136Z,8708.00
2018-12-04T10:07:36.155Z,8192.00
2018-12-04T10:08:36.124Z,7832.00
2018-12-04T10:09:36.105Z,7416.00
2018-12-04T10:10:36.090Z,6904.00
2018-12-04T10:11:36.131Z,6344.00
2018-12-04T10:12:36.069Z,5848.00
2018-12-04T10:13:36.093Z,5504.00
2018-12-04T10:14:36.045Z,5120.00
2018-12-04T10:15:36.046Z,4596.00
2018-12-04T10:16:36.030Z,4016.00
2018-12-04T10:17:36.045Z,3656.00
2018-12-04T10:18:36.121Z,3828.00
2018-12-04T10:19:35.990Z,4480.00
2018-12-04T10:20:35.986Z,5052.00
2018-12-04T10:21:35.991Z,5760.00
2018-12-04T10:22:36.089Z,6788.00
2018-12-04T10:23:35.962Z,7920.00
2018-12-04T10:24:35.946Z,9536.00
2018-12-04T10:25:35.926Z,11472.00
2018-12-04T10:26:35.938Z,13220.00
2018-12-04T10:27:35.946Z,13564.00
2018-12-04T10:28:35.910Z,11584.00
2018-12-04T10:29:35.886Z,8412.00
2018-12-04T10:30:35.884Z,6716.00
2018-12-04T10:31:35.874Z,6580.00
2018-12-04T10:32:35.902Z,7528.00
2018-12-04T10:33:35.855Z,8784.00
2018-12-04T10:34:35.840Z,9392.00
2018-12-04T10:35:35.843Z,9420.00
2018-12-04T10:36:35.825Z,10088.00
2018-12-04T10:37:35.832Z,10192.00
2018-12-04T10:38:35.794Z,10152.00
2018-12-04T10:39:35.788Z,10336.00
2018-12-04T10:40:35.768Z,10212.00
2018-12-04T10:41:35.761Z,9816.00
2018-12-04T10:42:35.840Z,9468.00
2018-12-04T10:43:35.782Z,8976.00
2018-12-04T10:44:35.737Z,8072.00
2018-12-04T10:45:35.727Z,6916.00
2018-12-04T10:46:35.701Z,6292.00
2018-12-04T10:47:35.773Z,6408.00
2018-12-04T10:48:35.712Z,6800.00
2018-12-04T10:49:35.680Z,7024.00
2018-12-04T10:50:35.662Z,7192.00
2018-12-04T10:51:35.687Z,7348.00
2018-12-04T10:52:35.682Z,7228.00
2018-12-04T10:53:35.674Z,6884.00
2018-12-04T10:54:35.614Z,6564.00
2018-12-04T10:55:35.656Z,6144.00
2018-12-04T10:56:35.605Z,5460.00
2018-12-04T10:57:35.588Z,4728.00
2018-12-04T10:58:35.586Z,4524.00
2018-12-04T10:59:35.581Z,4596.00
2018-12-04T11:00:35.603Z,4532.00
2018-12-04T11:01:35.577Z,4696.00
2018-12-04T11:02:35.543Z,5088.00
2018-12-04T11:03:35.536Z,5552.00
2018-12-04T11:04:35.513Z,5524.00
2018-12-04T11:05:35.559Z,5032.00
2018-12-04T11:06:35.561Z,4736.00
2018-12-04T11:07:35.481Z,4704.00
2018-12-04T11:08:35.466Z,4760.00
2018-12-04T11:09:35.483Z,5128.00
2018-12-04T11:10:35.459Z,5540.00
2018-12-04T11:11:35.499Z,5868.00
2018-12-04T11:12:35.427Z,6204.00
2018-12-04T11:13:35.416Z,6572.00
2018-12-04T11:14:35.427Z,6564.00
2018-12-04T11:15:35.392Z,6548.00
2018-12-04T11:16:35.440Z,6556.00
2018-12-04T11:17:35.414Z,7168.00
2018-12-04T11:18:35.355Z,7756.00
2018-12-04T11:19:35.380Z,8488.00
2018-12-04T11:20:35.340Z,10312.00
2018-12-04T11:21:35.338Z,12956.00
2018-12-04T11:22:35.366Z,13212.00
2018-12-04T11:23:35.319Z,11896.00
2018-12-04T11:24:35.321Z,10332.00
2018-12-04T11:25:35.306Z,10916.00
2018-12-04T11:26:35.289Z,11584.00
2018-12-04T11:27:35.346Z,12056.00
2018-12-04T11:28:35.306Z,13096.00
2018-12-04T11:29:35.273Z,16680.00
2018-12-04T11:30:35.280Z,20192.00
2018-12-04T11:31:35.224Z,15412.00
2018-12-04T11:32:35.223Z,12616.00
2018-12-04T11:33:35.257Z,11268.00
2018-12-04T11:34:35.297Z,11560.00
2018-12-04T11:35:35.195Z,13948.00
2018-12-04T11:36:35.188Z,13544.00
2018-12-04T11:37:35.166Z,13268.00
2018-12-04T11:38:35.148Z,16052.00
2018-12-04T11:39:35.185Z,21760.00
2018-12-04T11:40:35.148Z,24288.00
2018-12-04T11:41:35.123Z,22624.00
2018-12-04T11:42:35.108Z,21312.00
2018-12-04T11:43:35.111Z,21024.00
2018-12-04T11:44:35.167Z,15364.00
2018-12-04T11:45:35.104Z,12040.00
2018-12-04T11:46:35.082Z,10052.00
2018-12-04T11:47:35.046Z,9304.00
2018-12-04T11:48:35.052Z,9252.00
2018-12-04T11:49:35.039Z,10884.00
2018-12-04T11:50:35.074Z,12208.00
2018-12-04T11:51:35.021Z,11756.00
2018-12-04T11:52:34.992Z,12180.00
2018-12-04T11:53:34.989Z,13996.00
2018-12-04T11:54:35.026Z,14148.00
2018-12-04T11:55:34.973Z,13348.00
2018-12-04T11:56:34.973Z,12980.00
2018-12-04T11:57:34.941Z,12892.00
2018-12-04T11:58:34.930Z,13096.00
2018-12-04T11:59:34.949Z,15036.00
2018-12-04T12:00:34.916Z,20032.00
2018-12-04T12:01:34.905Z,23296.00
2018-12-04T12:02:34.937Z,23136.00
2018-12-04T12:03:34.877Z,27808.00
2018-12-04T12:04:34.866Z,30848.00
2018-12-04T12:05:34.855Z,33280.00
2018-12-04T12:06:34.844Z,36864.00
2018-12-04T12:07:34.882Z,38464.00
2018-12-04T12:08:34.840Z,28480.00
2018-12-04T12:09:34.825Z,29152.00
2018-12-04T12:10:34.805Z,20992.00
2018-12-04T12:11:34.795Z,17728.00
2018-12-04T12:12:34.812Z,18528.00
2018-12-04T12:13:34.780Z,21376.00
2018-12-04T12:14:34.758Z,20608.00
2018-12-04T12:15:34.766Z,17664.00
2018-12-04T12:16:34.813Z,15152.00
2018-12-04T12:17:34.729Z,16376.00
2018-12-04T12:18:34.714Z,19808.00
2018-12-04T12:19:34.745Z,25504.00
2018-12-04T12:20:34.713Z,28032.00
2018-12-04T12:21:34.687Z,28416.00
2018-12-04T12:22:34.672Z,26208.00
2018-12-04T12:23:34.664Z,23296.00
2018-12-04T12:24:34.691Z,26432.00
2018-12-04T12:25:34.643Z,26208.00
2018-12-04T12:26:34.656Z,29888.00
2018-12-04T12:27:34.622Z,27136.00
2018-12-04T12:28:34.607Z,24256.00
2018-12-04T12:29:34.631Z,19200.00
2018-12-04T12:30:34.634Z,17856.00
2018-12-04T12:31:34.577Z,16020.00
2018-12-04T12:32:34.591Z,14056.00
2018-12-04T12:33:34.557Z,14660.00
2018-12-04T12:34:34.554Z,16160.00
2018-12-04T12:35:34.561Z,15204.00
2018-12-04T12:36:34.562Z,13580.00
2018-12-04T12:37:34.550Z,14168.00
2018-12-04T12:38:34.521Z,11880.00
2018-12-04T12:39:34.490Z,11796.00
2018-12-04T12:40:34.491Z,11980.00
2018-12-04T12:41:34.472Z,14072.00